Time;durP1;ratioP1;P1;durP2;ratioP2;P2;SDS_P1;SDS_P2;PMS_P1;PMS_P2;Temp;Humidity;BMP_temperature;BMP_pressure;BME280_temperature;BME280_humidity;BME280_pressure;Samples;Min_cycle;Max_cycle;Signal;HPM_P1;HPM_P2
2021/07/04 00:00:28;;;;;;;5.50;5.00;;;;;;;17.37;67.29;99130.03;5039073;28;20317;-90
2021/07/04 00:02:56;;;;;;;6.40;5.53;;;;;;;17.34;67.32;99133.31;5039546;28;20318;-90
2021/07/04 00:05:27;;;;;;;6.07;5.40;;;;;;;17.18;67.75;99123.59;5022382;28;20221;-86
2021/07/04 00:07:53;;;;;;;5.77;5.27;;;;;;;17.23;67.73;99134.41;5055850;28;20253;-91
2021/07/04 00:10:24;;;;;;;5.57;5.07;;;;;;;17.16;67.74;99125.78;5039115;28;20345;-91
2021/07/04 00:12:56;;;;;;;5.70;5.20;;;;;;;17.25;67.08;99143.06;5024278;28;20609;-90
2021/07/04 00:15:24;;;;;;;5.93;5.43;;;;;;;17.22;66.84;99130.06;5056001;28;20291;-87
2021/07/04 00:17:52;;;;;;;6.30;5.73;;;;;;;17.24;66.67;99140.63;5022663;28;20222;-90
2021/07/04 00:20:20;;;;;;;5.87;5.37;;;;;;;17.18;66.54;99129.00;5038885;28;20312;-90
2021/07/04 00:22:48;;;;;;;5.73;5.23;;;;;;;17.12;66.64;99125.47;5055780;28;20296;-90
2021/07/04 00:25:15;;;;;;;6.10;5.53;;;;;;;16.99;66.69;99109.00;5022171;28;20657;-92
2021/07/04 00:27:43;;;;;;;7.93;6.00;;;;;;;17.04;66.83;99119.81;5039741;28;20228;-90
2021/07/04 00:30:12;;;;;;;6.50;5.80;;;;;;;16.99;67.09;99117.13;5038568;28;20320;-91
2021/07/04 00:32:39;;;;;;;5.70;5.10;;;;;;;16.97;67.08;99122.84;5055486;28;20679;-91
2021/07/04 00:35:08;;;;;;;6.07;5.57;;;;;;;16.98;67.14;99121.72;5022367;28;20229;-91
2021/07/04 00:37:35;;;;;;;6.07;5.47;;;;;;;16.93;67.00;99118.25;5035391;28;20550;-91
2021/07/04 00:40:05;;;;;;;6.47;5.80;;;;;;;16.94;66.91;99120.66;5018878;28;20226;-91
2021/07/04 00:42:32;;;;;;;6.23;5.63;;;;;;;16.92;66.57;99119.31;5052069;28;20241;-92
2021/07/04 00:44:59;;;;;;;6.20;5.60;;;;;;;16.82;66.52;99114.72;5018985;28;20281;-92
2021/07/04 00:47:26;;;;;;;6.50;5.90;;;;;;;16.89;66.61;99122.59;5022193;28;20241;-90
2021/07/04 00:49:53;;;;;;;6.33;5.83;;;;;;;16.79;66.98;99118.00;5038683;28;20225;-90
2021/07/04 00:52:20;;;;;;;6.60;6.00;;;;;;;16.79;66.48;99107.16;5038341;28;21306;-92
2021/07/04 00:54:47;;;;;;;6.27;5.77;;;;;;;16.78;66.84;99110.13;5038718;28;20587;-92
2021/07/04 00:57:15;;;;;;;6.83;6.23;;;;;;;16.73;66.51;99103.66;5022115;28;20225;-91
2021/07/04 00:59:42;;;;;;;6.20;5.57;;;;;;;16.69;66.35;99099.88;5038632;28;20320;-92
2021/07/04 01:02:09;;;;;;;6.77;6.07;;;;;;;16.61;66.54;99095.00;5054773;28;20276;-89
2021/07/04 01:04:36;;;;;;;5.73;5.23;;;;;;;16.64;66.68;99099.88;5038802;28;20633;-92
2021/07/04 01:07:04;;;;;;;6.23;5.73;;;;;;;16.64;67.05;99099.06;5038654;28;20228;-91
2021/07/04 01:09:31;;;;;;;6.97;6.23;;;;;;;16.53;66.71;99087.41;5038342;28;20662;-92
2021/07/04 01:11:58;;;;;;;6.00;5.50;;;;;;;16.53;66.81;99089.28;5054680;28;20304;-92
2021/07/04 01:14:25;;;;;;;6.17;5.57;;;;;;;16.49;67.00;99091.72;5021868;28;21162;-91
2021/07/04 01:16:58;;;;;;;6.53;5.93;;;;;;;16.46;67.23;99086.88;5039262;28;20239;-90
2021/07/04 01:19:26;;;;;;;6.00;5.50;;;;;;;16.44;66.98;99091.72;5039188;28;20226;-92
2021/07/04 01:21:56;;;;;;;6.47;5.97;;;;;;;16.49;67.02;99107.13;5038795;28;20240;-91
2021/07/04 01:24:25;;;;;;;6.40;5.87;;;;;;;16.47;67.01;99114.72;5038145;28;20233;-91
2021/07/04 01:26:52;;;;;;;5.90;5.40;;;;;;;16.44;66.75;99096.31;5038322;28;20221;-91
2021/07/04 01:29:20;;;;;;;6.23;5.67;;;;;;;16.41;66.62;99091.47;5055073;28;20213;-89
2021/07/04 01:31:48;;;;;;;6.13;5.53;;;;;;;16.52;66.38;99115.50;5038737;28;20538;-91
2021/07/04 01:34:16;;;;;;;7.00;6.03;;;;;;;16.57;66.28;99117.41;5021943;28;20248;-89
2021/07/04 01:36:43;;;;;;;6.53;5.60;;;;;;;16.51;66.37;99115.81;5034684;28;20222;-89
2021/07/04 01:39:12;;;;;;;5.97;5.37;;;;;;;16.53;66.45;99122.56;5034650;28;20234;-90
2021/07/04 01:41:48;;;;;;;5.83;5.30;;;;;;;16.53;66.18;99124.44;5019463;28;20381;-89
2021/07/04 01:44:24;;;;;;;5.70;5.20;;;;;;;16.53;65.90;99121.75;5033936;28;20238;-91
2021/07/04 01:46:52;;;;;;;6.43;5.83;;;;;;;16.42;66.08;99114.72;5038034;28;20226;-89
2021/07/04 01:49:22;;;;;;;6.97;6.27;;;;;;;16.29;66.74;99132.25;5038500;28;20226;-89
2021/07/04 01:51:52;;;;;;;6.20;5.70;;;;;;;16.17;67.35;99137.13;5022101;28;20308;-89
2021/07/04 01:54:28;;;;;;;6.13;5.53;;;;;;;16.03;67.90;99139.53;5054062;28;20229;-91
2021/07/04 01:56:55;;;;;;;6.20;5.70;;;;;;;15.99;68.00;99137.63;5037683;28;20312;-88
2021/07/04 01:59:22;;;;;;;6.20;5.63;;;;;;;15.93;68.13;99127.88;5021528;28;20688;-91
2021/07/04 02:02:03;;;;;;;6.63;6.03;;;;;;;15.85;68.58;99129.22;5024727;28;20249;-90
2021/07/04 02:04:42;;;;;;;6.37;5.77;;;;;;;15.72;68.71;99125.09;5022642;28;20245;-89
2021/07/04 02:07:19;;;;;;;6.33;5.77;;;;;;;15.51;69.33;99098.31;5039158;28;20221;-87
2021/07/04 02:09:51;;;;;;;6.47;5.93;;;;;;;15.60;69.73;99113.72;5038410;28;20708;-88
2021/07/04 02:12:21;;;;;;;7.30;6.60;;;;;;;15.58;69.36;99113.19;5022017;28;20295;-89
2021/07/04 02:14:52;;;;;;;6.83;6.27;;;;;;;15.38;70.25;99111.19;5053996;28;20232;-89
2021/07/04 02:17:29;;;;;;;6.90;6.30;;;;;;;15.37;70.38;99116.84;5038841;28;20232;-90
2021/07/04 02:20:25;;;;;;;6.83;6.27;;;;;;;15.38;70.94;99118.47;5053733;28;20225;-88
2021/07/04 02:23:16;;;;;;;6.50;6.00;;;;;;;15.27;70.97;99114.09;5053942;28;20229;-88
2021/07/04 02:26:00;;;;;;;6.83;6.23;;;;;;;15.33;71.28;99118.44;5039623;28;20583;-88
2021/07/04 02:28:32;;;;;;;6.63;5.90;;;;;;;15.31;71.24;99110.59;5037249;28;20218;-88
2021/07/04 02:31:03;;;;;;;6.87;6.17;;;;;;;15.25;71.15;99117.06;5006613;28;20695;-88
2021/07/04 02:33:32;;;;;;;7.17;6.30;;;;;;;15.19;71.21;99107.31;5007595;28;20229;-91
2021/07/04 02:36:01;;;;;;;7.03;6.33;;;;;;;15.27;71.24;99106.00;5041140;28;20254;-88
2021/07/04 02:38:29;;;;;;;6.50;5.90;;;;;;;15.25;71.14;99105.47;5024846;28;20232;-88
2021/07/04 02:40:56;;;;;;;6.90;6.30;;;;;;;15.34;71.07;99109.28;5057549;28;20228;-91
2021/07/04 02:43:25;;;;;;;6.80;6.20;;;;;;;15.40;71.14;99119.00;5024595;28;20528;-88
2021/07/04 02:45:56;;;;;;;6.90;6.20;;;;;;;15.34;71.10;99110.09;5025900;28;20546;-87
2021/07/04 02:48:23;;;;;;;7.07;6.37;;;;;;;15.33;71.41;99099.56;5057244;28;20250;-91
2021/07/04 02:50:51;;;;;;;7.40;6.70;;;;;;;15.47;71.24;99118.78;5040820;28;20253;-91
2021/07/04 02:53:24;;;;;;;6.73;6.13;;;;;;;15.39;71.22;99104.72;5041519;28;20221;-91
2021/07/04 02:55:53;;;;;;;7.10;6.40;;;;;;;15.38;71.18;99095.00;5037146;28;20229;-90
2021/07/04 02:58:25;;;;;;;7.00;6.30;;;;;;;15.55;70.45;99102.09;5036737;28;20222;-91
2021/07/04 03:00:53;;;;;;;6.57;6.07;;;;;;;15.59;70.29;99103.19;5041251;28;20715;-89
2021/07/04 03:03:21;;;;;;;7.00;6.40;;;;;;;15.59;69.84;99089.69;5040596;28;20225;-90
2021/07/04 03:05:49;;;;;;;6.97;6.37;;;;;;;15.68;69.44;99105.09;5057136;28;20530;-91
2021/07/04 03:08:17;;;;;;;7.10;6.50;;;;;;;15.77;69.12;99113.53;5040171;28;20232;-89
2021/07/04 03:10:44;;;;;;;6.90;6.20;;;;;;;15.75;69.12;99097.59;5024015;28;20244;-89
2021/07/04 03:13:15;;;;;;;7.20;6.57;;;;;;;15.88;68.61;99109.75;5025134;28;20238;-89
2021/07/04 03:15:42;;;;;;;6.80;6.20;;;;;;;15.92;68.40;99110.84;5057023;28;20234;-91
2021/07/04 03:18:09;;;;;;;6.70;5.93;;;;;;;16.02;67.79;99094.66;5023547;28;20641;-90
2021/07/04 03:20:40;;;;;;;6.63;5.93;;;;;;;16.10;67.51;99101.41;5024614;28;20233;-91
2021/07/04 03:23:10;;;;;;;6.70;6.10;;;;;;;16.24;67.50;99108.75;5041046;28;20225;-91
2021/07/04 03:25:38;;;;;;;6.80;6.20;;;;;;;16.29;67.05;99100.63;5024041;28;20225;-91
2021/07/04 03:28:07;;;;;;;6.77;6.17;;;;;;;16.43;66.44;99110.91;5055467;28;20604;-90
2021/07/04 03:30:36;;;;;;;7.00;6.30;;;;;;;16.25;67.04;99114.97;5036713;28;20310;-90
2021/07/04 03:33:03;;;;;;;7.27;6.50;;;;;;;16.44;66.89;99129.59;5020265;28;20253;-91
2021/07/04 03:35:32;;;;;;;6.90;6.30;;;;;;;16.56;65.98;99113.09;5004349;28;20234;-91
2021/07/04 03:38:04;;;;;;;6.97;6.30;;;;;;;16.62;66.51;99128.25;5004386;28;20252;-87
2021/07/04 03:40:31;;;;;;;6.43;5.83;;;;;;;16.76;66.07;99115.81;5003600;28;20284;-87
2021/07/04 03:43:07;;;;;;;6.53;6.03;;;;;;;16.88;65.81;99124.47;5053561;28;20225;-87
2021/07/04 03:45:37;;;;;;;6.60;5.90;;;;;;;17.03;65.38;99137.94;5040095;28;20240;-89
2021/07/04 03:48:07;;;;;;;6.50;5.90;;;;;;;17.14;64.91;99130.63;5024095;28;20228;-90
2021/07/04 03:50:49;;;;;;;6.80;5.87;;;;;;;17.37;64.47;99138.16;5056238;28;20308;-91
2021/07/04 03:53:18;;;;;;;7.03;6.27;;;;;;;17.50;63.46;99129.44;5023986;28;20230;-91
2021/07/04 03:55:47;;;;;;;6.80;6.20;;;;;;;17.57;63.06;99129.16;5055660;28;20316;-87
2021/07/04 03:58:15;;;;;;;6.27;5.67;;;;;;;17.66;62.85;99127.53;5022717;28;20230;-87
2021/07/04 04:00:41;;;;;;;6.80;6.20;;;;;;;17.84;62.21;99121.47;5039279;28;20221;-91
2021/07/04 04:03:14;;;;;;;6.43;5.83;;;;;;;18.24;61.01;99135.88;5024720;28;20240;-91
2021/07/04 04:05:54;;;;;;;6.17;5.57;;;;;;;19.58;56.18;99133.31;5026082;28;20271;-89
2021/07/04 04:08:21;;;;;;;5.83;5.33;;;;;;;20.87;52.82;99133.63;5039035;28;20241;-91
2021/07/04 04:10:48;;;;;;;6.13;5.53;;;;;;;21.61;51.03;99145.34;5022925;28;20534;-90
2021/07/04 04:13:19;;;;;;;5.63;5.17;;;;;;;21.92;49.92;99145.53;5023820;28;20710;-89
2021/07/04 04:15:51;;;;;;;5.73;5.23;;;;;;;22.27;48.34;99124.84;5039407;28;20306;-91
2021/07/04 04:18:21;;;;;;;5.20;4.80;;;;;;;22.48;47.82;99141.56;5022804;28;20229;-86
2021/07/04 04:20:48;;;;;;;5.33;4.87;;;;;;;22.49;47.91;99135.00;5055427;28;20241;-90
2021/07/04 04:23:16;;;;;;;5.87;5.37;;;;;;;22.60;47.60;99128.16;5038874;28;20230;-86
2021/07/04 04:25:44;;;;;;;5.97;5.30;;;;;;;22.67;47.60;99123.09;5038597;28;20223;-86
2021/07/04 04:28:11;;;;;;;6.17;5.67;;;;;;;23.11;46.79;99122.22;5022188;28;20223;-86
2021/07/04 04:30:38;;;;;;;6.17;5.57;;;;;;;23.12;46.23;99126.59;5022068;28;20231;-87
2021/07/04 04:33:09;;;;;;;5.57;5.07;;;;;;;23.32;45.64;99128.78;5055160;28;20235;-88
2021/07/04 04:35:38;;;;;;;5.70;5.20;;;;;;;23.60;45.30;99178.63;5055440;28;20235;-88
2021/07/04 04:38:06;;;;;;;6.00;5.23;;;;;;;24.12;43.40;99191.28;5052123;28;20303;-85
2021/07/04 04:40:32;;;;;;;5.93;5.43;;;;;;;24.35;42.67;99142.75;5021305;28;20229;-86
2021/07/04 04:42:59;;;;;;;6.30;5.80;;;;;;;24.02;43.67;99141.56;5054878;28;20308;-87
2021/07/04 04:45:27;;;;;;;5.47;5.07;;;;;;;23.42;44.57;99120.31;5054292;28;20248;-86
2021/07/04 04:47:54;;;;;;;5.20;4.77;;;;;;;23.17;45.34;99129.19;5054918;28;20225;-86
2021/07/04 04:50:21;;;;;;;5.87;5.37;;;;;;;22.86;46.72;99128.38;5037974;28;20235;-86
2021/07/04 04:52:49;;;;;;;5.93;5.33;;;;;;;22.69;47.52;99118.09;5038604;28;20570;-86
2021/07/04 04:55:15;;;;;;;5.03;4.63;;;;;;;22.59;47.53;99124.63;5054519;28;20237;-86
2021/07/04 04:57:42;;;;;;;5.80;5.17;;;;;;;22.46;48.21;99128.22;5054492;28;20252;-84
2021/07/04 05:00:12;;;;;;;5.93;5.43;;;;;;;22.44;48.14;99132.38;5054273;28;20232;-86
2021/07/04 05:02:42;;;;;;;5.37;4.97;;;;;;;22.35;47.97;99127.66;5053537;28;20232;-89
2021/07/04 05:05:11;;;;;;;5.73;5.30;;;;;;;22.32;48.48;99135.66;5013069;28;20223;-89
2021/07/04 05:07:37;;;;;;;6.03;5.43;;;;;;;22.29;48.47;99130.81;5038857;28;20243;-86
2021/07/04 05:10:05;;;;;;;5.80;5.20;;;;;;;22.32;48.55;99141.91;5051570;28;20238;-87
2021/07/04 05:12:31;;;;;;;5.50;5.00;;;;;;;22.43;48.32;99139.75;5055400;28;20229;-86
2021/07/04 05:14:59;;;;;;;5.53;5.03;;;;;;;22.57;48.23;99136.97;5021647;28;20252;-87
2021/07/04 05:17:26;;;;;;;5.63;5.13;;;;;;;22.68;47.79;99147.31;5021617;28;20225;-86
2021/07/04 05:19:53;;;;;;;7.50;6.17;;;;;;;22.84;47.46;99156.00;5054239;28;20319;-86
2021/07/04 05:22:20;;;;;;;5.57;5.07;;;;;;;23.04;47.60;99154.69;5020464;28;20238;-89
2021/07/04 05:24:47;;;;;;;6.40;5.90;;;;;;;23.11;47.40;99146.81;5036426;28;20220;-87
2021/07/04 05:27:14;;;;;;;7.27;5.50;;;;;;;23.12;47.65;99152.00;5036589;28;20217;-86
2021/07/04 05:29:41;;;;;;;5.70;5.20;;;;;;;23.21;46.96;99150.09;5019524;28;21226;-88
2021/07/04 05:32:13;;;;;;;5.75;5.18;;;;;;;23.45;46.48;99152.50;5035905;28;20221;-86
2021/07/04 05:34:40;;;;;;;5.77;5.27;;;;;;;23.68;46.26;99155.94;5053041;28;20577;-86
2021/07/04 05:37:06;;;;;;;5.60;5.10;;;;;;;23.87;45.63;99164.69;5053878;28;20535;-88
2021/07/04 05:39:33;;;;;;;5.50;5.00;;;;;;;24.09;45.04;99153.63;5037528;28;20224;-88
2021/07/04 05:42:00;;;;;;;5.45;4.95;;;;;;;24.20;44.65;99145.16;5036888;28;20313;-86
2021/07/04 05:44:27;;;;;;;5.82;5.32;;;;;;;24.49;43.59;99156.28;5034961;28;20320;-86
2021/07/04 05:46:54;;;;;;;5.57;5.10;;;;;;;24.93;42.10;99161.41;5053079;28;20220;-87
2021/07/04 05:49:21;;;;;;;5.32;4.82;;;;;;;25.03;41.68;99156.72;5053875;28;20215;-86
2021/07/04 05:51:48;;;;;;;5.00;4.60;;;;;;;25.17;41.20;99140.88;5053519;28;20656;-86
2021/07/04 05:54:15;;;;;;;4.90;4.50;;;;;;;25.43;40.54;99145.13;5037374;28;20272;-86
2021/07/04 05:56:42;;;;;;;4.95;4.55;;;;;;;25.29;39.75;99138.28;5054403;28;20233;-85
2021/07/04 05:59:09;;;;;;;5.63;4.80;;;;;;;25.52;40.23;99147.06;5021353;28;20610;-87
2021/07/04 06:01:37;;;;;;;5.60;5.10;;;;;;;25.43;40.07;99145.13;5017981;28;20439;-87
2021/07/04 06:04:05;;;;;;;5.78;5.30;;;;;;;25.38;40.36;99144.53;5040655;28;20616;-85
2021/07/04 06:06:32;;;;;;;4.93;4.53;;;;;;;25.44;40.14;99146.75;5041423;28;20530;-85
2021/07/04 06:09:00;;;;;;;5.65;5.15;;;;;;;25.55;39.93;99130.75;5057961;28;20225;-85
2021/07/04 06:11:28;;;;;;;5.80;4.78;;;;;;;25.83;39.21;99144.81;5021706;28;20384;-88
2021/07/04 06:13:55;;;;;;;4.90;4.50;;;;;;;26.03;38.49;99148.75;5041352;28;20275;-85
2021/07/04 06:16:22;;;;;;;5.13;4.72;;;;;;;26.14;38.28;99148.00;5031038;28;20257;-84
2021/07/04 06:18:49;;;;;;;5.15;4.68;;;;;;;26.17;38.79;99138.31;5021924;28;20282;-88
2021/07/04 06:21:16;;;;;;;5.70;5.10;;;;;;;25.91;39.24;99132.97;5053294;28;20277;-89
2021/07/04 06:23:42;;;;;;;5.35;4.85;;;;;;;25.94;39.43;99134.28;5056819;28;20210;-89
2021/07/04 06:26:09;;;;;;;5.35;4.90;;;;;;;25.58;39.02;99121.88;5017955;28;20226;-86
2021/07/04 06:28:40;;;;;;;5.13;4.68;;;;;;;25.38;39.98;99098.69;5040620;28;20229;-85
2021/07/04 06:31:07;;;;;;;5.60;5.10;;;;;;;25.10;41.62;99127.69;5057030;28;20317;-85
2021/07/04 06:33:34;;;;;;;5.75;5.22;;;;;;;24.86;42.10;99130.13;5046049;28;20240;-90
2021/07/04 06:36:01;;;;;;;5.55;4.75;;;;;;;24.74;42.49;99135.47;5009809;28;20222;-85
2021/07/04 06:38:28;;;;;;;5.18;4.78;;;;;;;24.02;43.68;99125.16;5040947;28;20641;-88
2021/07/04 06:40:54;;;;;;;6.35;5.15;;;;;;;24.53;42.87;99132.59;5036803;28;20254;-86
2021/07/04 06:43:22;;;;;;;4.82;4.38;;;;;;;24.58;43.22;99120.69;5055987;28;20226;-85
2021/07/04 06:45:52;;;;;;;5.90;5.10;;;;;;;25.13;42.22;99123.47;5040753;28;20225;-87
2021/07/04 06:48:19;;;;;;;5.30;4.90;;;;;;;25.51;41.95;99128.97;5040450;28;20234;-89
2021/07/04 06:50:47;;;;;;;5.70;5.30;;;;;;;25.93;41.09;99125.22;5040080;28;20279;-88
2021/07/04 06:53:13;;;;;;;5.57;5.07;;;;;;;25.82;41.33;99121.25;5040697;28;20225;-85
2021/07/04 06:55:40;;;;;;;5.82;5.25;;;;;;;26.04;40.03;99134.66;5040465;28;20307;-87
2021/07/04 06:58:07;;;;;;;6.22;5.60;;;;;;;26.12;40.69;99131.06;5056987;28;20233;-87
2021/07/04 07:00:34;;;;;;;5.57;5.07;;;;;;;25.87;41.44;99115.56;5040227;28;20223;-86
2021/07/04 07:03:01;;;;;;;5.80;5.30;;;;;;;25.51;42.50;99124.31;5040263;28;20766;-88
2021/07/04 07:05:28;;;;;;;5.93;5.43;;;;;;;25.76;41.91;99131.59;5027809;28;20321;-85
2021/07/04 07:07:55;;;;;;;5.30;4.82;;;;;;;25.83;42.01;99131.91;5024089;28;20320;-86
2021/07/04 07:10:21;;;;;;;5.88;5.20;;;;;;;25.82;41.58;99122.06;5022900;28;20229;-86
2021/07/04 07:12:48;;;;;;;6.03;5.50;;;;;;;25.42;41.46;99123.53;5039581;28;20242;-86
2021/07/04 07:15:21;;;;;;;5.80;5.18;;;;;;;25.53;41.38;99115.72;5024867;28;20237;-86
2021/07/04 07:17:48;;;;;;;6.65;5.18;;;;;;;25.86;40.83;99113.97;5023476;28;20253;-87
2021/07/04 07:20:15;;;;;;;5.50;5.00;;;;;;;26.00;40.92;99130.16;5039867;28;20242;-88
2021/07/04 07:22:42;;;;;;;5.90;5.28;;;;;;;26.19;40.97;99117.59;5039413;28;20241;-86
2021/07/04 07:25:14;;;;;;;5.43;4.93;;;;;;;26.48;40.11;99118.69;5040231;28;20237;-84
2021/07/04 07:27:41;;;;;;;5.60;5.10;;;;;;;27.02;38.58;99112.03;5039930;28;20221;-84
2021/07/04 07:30:09;;;;;;;5.70;5.20;;;;;;;27.89;36.92;99118.06;5035586;28;20222;-87
2021/07/04 07:32:38;;;;;;;5.25;4.85;;;;;;;28.30;35.93;99130.75;5053371;28;20304;-84
2021/07/04 07:35:06;;;;;;;5.93;5.45;;;;;;;28.30;36.06;99119.72;5040097;28;20716;-86
2021/07/04 07:37:34;;;;;;;5.65;5.25;;;;;;;28.15;36.19;99112.19;5023493;28;20252;-85
2021/07/04 07:40:02;;;;;;;6.70;5.72;;;;;;;28.60;35.33;99106.44;5056289;28;20231;-82
2021/07/04 07:42:30;;;;;;;5.97;5.47;;;;;;;29.15;34.48;99110.28;5039690;28;20227;-83
2021/07/04 07:44:57;;;;;;;5.30;4.90;;;;;;;29.75;33.51;99112.59;5055694;28;20319;-84
2021/07/04 07:47:23;;;;;;;5.82;5.32;;;;;;;30.21;31.65;99107.31;5056487;28;20315;-85
2021/07/04 07:49:50;;;;;;;5.90;5.40;;;;;;;29.56;32.34;99108.97;5020128;28;20237;-83
2021/07/04 07:52:17;;;;;;;5.40;5.00;;;;;;;29.87;32.24;99091.53;5029863;28;20551;-84
2021/07/04 07:54:44;;;;;;;5.70;5.28;;;;;;;30.76;31.31;99095.03;5019791;28;20312;-86
2021/07/04 07:57:13;;;;;;;5.47;5.07;;;;;;;31.25;30.51;99089.66;5036608;28;20222;-87
2021/07/04 07:59:42;;;;;;;5.22;4.80;;;;;;;31.56;30.03;99068.41;5019724;28;20280;-83
2021/07/04 08:02:09;;;;;;;5.35;4.95;;;;;;;31.75;29.60;99082.94;5031899;28;21313;-87
2021/07/04 08:04:37;;;;;;;5.72;5.22;;;;;;;31.79;28.43;99083.78;5039325;28;20238;-84
2021/07/04 08:07:04;;;;;;;5.90;5.40;;;;;;;31.94;28.25;99072.91;5039297;28;20239;-83
2021/07/04 08:09:31;;;;;;;5.65;5.22;;;;;;;31.74;28.94;99073.03;5022877;28;20245;-84
2021/07/04 08:11:58;;;;;;;5.47;4.97;;;;;;;31.34;29.83;99073.59;5038380;28;20707;-85
2021/07/04 08:14:25;;;;;;;5.93;5.43;;;;;;;31.56;29.97;99074.75;5037866;28;20690;-83
2021/07/04 08:17:01;;;;;;;5.68;5.18;;;;;;;31.29;29.54;99068.34;5055749;28;20228;-85
2021/07/04 08:19:28;;;;;;;5.50;5.10;;;;;;;31.85;28.44;99073.19;5039234;28;20339;-85
2021/07/04 08:21:55;;;;;;;5.50;5.00;;;;;;;32.32;27.24;99064.34;5038697;28;20305;-86
2021/07/04 08:24:21;;;;;;;5.70;5.20;;;;;;;32.51;27.86;99074.47;5038001;28;20233;-83
2021/07/04 08:26:48;;;;;;;5.80;5.30;;;;;;;32.62;27.44;99072.59;5038950;28;20336;-86
2021/07/04 08:29:15;;;;;;;5.60;5.20;;;;;;;32.62;27.90;99055.94;5055515;28;20271;-85
2021/07/04 08:31:42;;;;;;;6.03;5.57;;;;;;;32.67;28.54;99066.72;5038403;28;20222;-86
2021/07/04 08:34:09;;;;;;;5.63;4.93;;;;;;;31.99;28.09;99056.75;5021454;28;20236;-85
2021/07/04 08:36:36;;;;;;;6.15;5.57;;;;;;;31.30;28.43;99058.88;5030453;28;20245;-86
2021/07/04 08:39:04;;;;;;;5.65;5.10;;;;;;;31.37;29.22;99056.22;5035255;28;20317;-83
2021/07/04 08:41:31;;;;;;;5.55;5.15;;;;;;;31.08;29.80;99043.09;5018769;28;20226;-87
2021/07/04 08:44:04;;;;;;;5.97;5.47;;;;;;;30.73;29.22;99057.06;5018152;28;20228;-84
2021/07/04 08:46:31;;;;;;;6.00;5.60;;;;;;;29.75;31.10;99059.34;5037118;28;20233;-83
2021/07/04 08:48:58;;;;;;;6.13;5.63;;;;;;;29.92;31.17;99044.34;5022252;28;20222;-83
2021/07/04 08:51:25;;;;;;;5.75;5.35;;;;;;;30.52;30.58;99042.84;5038405;28;20229;-84
2021/07/04 08:53:52;;;;;;;6.07;5.57;;;;;;;30.87;29.62;99045.47;5054383;28;20263;-86
2021/07/04 08:56:19;;;;;;;6.05;5.55;;;;;;;31.48;28.74;99035.06;5054378;28;20272;-85
2021/07/04 08:58:46;;;;;;;5.75;5.22;;;;;;;31.68;27.88;99038.50;5055065;28;20546;-86
2021/07/04 09:01:28;;;;;;;5.70;5.20;;;;;;;31.86;27.88;99036.81;5054783;28;20271;-84
2021/07/04 09:04:11;;;;;;;7.38;5.65;;;;;;;31.25;28.06;99031.53;5024448;28;20222;-86
2021/07/04 09:06:42;;;;;;;5.55;5.15;;;;;;;30.30;29.78;99033.31;5033316;28;20521;-84
2021/07/04 09:09:33;;;;;;;6.00;5.43;;;;;;;30.27;29.83;99036.81;5018450;28;20234;-85
2021/07/04 09:12:10;;;;;;;5.35;4.95;;;;;;;30.73;28.97;99028.63;5034689;28;20675;-83
2021/07/04 09:14:39;;;;;;;6.00;5.40;;;;;;;30.80;28.55;99034.25;5049677;28;20221;-86
2021/07/04 09:17:32;;;;;;;5.55;5.05;;;;;;;31.44;27.63;99028.66;5040906;28;20233;-86
2021/07/04 09:20:00;;;;;;;5.28;4.88;;;;;;;31.86;27.64;99025.75;5020816;28;20311;-84
2021/07/04 09:22:29;;;;;;;5.50;5.10;;;;;;;31.77;27.89;99027.19;5053971;28;20320;-84
2021/07/04 09:25:06;;;;;;;5.07;4.70;;;;;;;31.95;28.45;99042.06;5018662;28;20518;-87
2021/07/04 09:27:33;;;;;;;5.15;4.75;;;;;;;32.43;26.90;99023.66;5053889;28;20225;-87
2021/07/04 09:29:59;;;;;;;5.47;5.07;;;;;;;32.36;26.86;99029.13;5037377;28;20329;-87
2021/07/04 09:32:28;;;;;;;5.55;5.07;;;;;;;32.18;26.95;99039.22;5037284;28;20637;-87
2021/07/04 09:35:00;;;;;;;5.40;4.93;;;;;;;32.40;26.48;99027.19;5037733;28;20256;-87
2021/07/04 09:37:31;;;;;;;5.30;4.80;;;;;;;32.55;25.97;99036.47;5058694;28;20251;-87
2021/07/04 09:40:21;;;;;;;5.55;5.15;;;;;;;32.17;26.63;99034.84;5042157;28;20236;-84
2021/07/04 09:43:07;;;;;;;5.70;5.20;;;;;;;32.60;25.96;99008.41;5056959;28;20566;-88
2021/07/04 09:45:44;;;;;;;5.20;4.63;;;;;;;32.78;25.49;99037.16;5038516;28;20715;-84
2021/07/04 09:48:21;;;;;;;5.22;4.82;;;;;;;32.42;25.33;99030.41;5012121;28;20229;-84
2021/07/04 09:50:53;;;;;;;5.18;4.72;;;;;;;32.50;25.07;99007.13;5023096;28;20634;-87
2021/07/04 09:53:32;;;;;;;5.05;4.65;;;;;;;32.90;25.30;99033.28;5037275;28;20229;-88
2021/07/04 09:56:20;;;;;;;5.90;4.80;;;;;;;32.28;25.66;99033.00;5036245;28;20522;-85
2021/07/04 09:58:56;;;;;;;5.22;4.80;;;;;;;31.84;26.27;99017.00;5038592;28;20518;-84
2021/07/04 10:01:46;;;;;;;5.22;4.82;;;;;;;31.22;27.53;99034.22;5024202;28;20248;-85
2021/07/04 10:04:28;;;;;;;5.38;4.97;;;;;;;30.68;28.54;99006.81;5032190;28;20511;-86
2021/07/04 10:06:59;;;;;;;5.50;5.10;;;;;;;30.43;30.36;98989.72;5024164;28;20283;-84
2021/07/04 10:09:29;;;;;;;5.47;5.07;;;;;;;30.40;28.97;98993.22;5023377;28;20239;-84
2021/07/04 10:11:56;;;;;;;5.65;4.78;;;;;;;30.73;28.44;98996.25;5036727;28;20664;-86
2021/07/04 10:14:24;;;;;;;5.32;4.93;;;;;;;31.27;29.00;99009.00;5037341;28;20316;-87
2021/07/04 10:16:51;;;;;;;5.57;5.18;;;;;;;30.70;29.52;99010.81;5022764;28;20234;-85
2021/07/04 10:19:21;;;;;;;5.63;5.20;;;;;;;30.68;29.53;98992.97;5027041;28;20229;-88
2021/07/04 10:21:51;;;;;;;5.88;5.40;;;;;;;30.80;29.89;99003.84;5040958;28;20223;-84
2021/07/04 10:24:18;;;;;;;5.82;5.32;;;;;;;30.99;29.80;99001.00;5040589;28;20596;-85
2021/07/04 10:26:46;;;;;;;5.53;5.13;;;;;;;31.46;29.40;98995.84;5024555;28;20304;-85
2021/07/04 10:29:13;;;;;;;5.25;4.85;;;;;;;31.66;28.41;98998.53;5058314;28;20316;-86
2021/07/04 10:31:40;;;;;;;5.22;4.72;;;;;;;31.05;29.37;98982.97;5038980;28;20233;-87
2021/07/04 10:34:18;;;;;;;6.00;5.40;;;;;;;30.67;30.66;98992.19;5040601;28;20252;-83
2021/07/04 10:37:02;;;;;;;6.15;5.65;;;;;;;30.37;29.92;98980.97;5041000;28;20313;-83
2021/07/04 10:39:31;;;;;;;5.30;4.90;;;;;;;30.63;30.54;98991.31;5024188;28;20230;-84
2021/07/04 10:42:00;;;;;;;5.47;5.07;;;;;;;30.41;29.71;98978.25;5039925;28;20241;-87
2021/07/04 10:44:45;;;;;;;5.18;4.78;;;;;;;31.00;28.97;98974.97;5022525;28;20688;-88
2021/07/04 10:47:16;;;;;;;5.85;5.35;;;;;;;31.21;28.99;98975.34;5019911;28;20230;-86
2021/07/04 10:49:49;;;;;;;6.03;5.53;;;;;;;30.01;31.47;98964.84;5053439;28;20246;-87
2021/07/04 10:52:34;;;;;;;5.57;5.00;;;;;;;30.54;30.45;98972.22;5027123;28;20696;-85
2021/07/04 10:55:03;;;;;;;5.38;4.90;;;;;;;30.40;29.31;98971.94;5056765;28;20229;-85
2021/07/04 10:57:33;;;;;;;5.35;4.95;;;;;;;31.54;28.78;98976.59;5056738;28;20312;-87
2021/07/04 11:00:03;;;;;;;5.40;5.00;;;;;;;31.94;28.85;98973.19;5040247;28;20283;-85
2021/07/04 11:02:41;;;;;;;5.35;4.88;;;;;;;32.55;27.23;98972.72;5039796;28;20256;-86
2021/07/04 11:05:18;;;;;;;5.60;5.10;;;;;;;31.99;27.46;98965.34;5057945;28;20257;-87
2021/07/04 11:07:54;;;;;;;5.35;4.97;;;;;;;31.74;27.85;98969.75;5040060;28;20659;-85
2021/07/04 11:10:25;;;;;;;4.88;4.47;;;;;;;31.75;26.51;98950.00;5055704;28;20241;-86
2021/07/04 11:12:57;;;;;;;5.05;4.65;;;;;;;31.99;26.75;98957.03;5057135;28;20229;-86
2021/07/04 11:15:25;;;;;;;4.60;4.20;;;;;;;32.64;24.81;98954.59;5039869;28;20248;-82
2021/07/04 11:17:55;;;;;;;5.45;4.95;;;;;;;32.66;25.44;98951.47;5023722;28;20317;-87
2021/07/04 11:20:32;;;;;;;4.47;4.07;;;;;;;32.74;25.79;98953.91;5056179;28;20235;-87
2021/07/04 11:23:03;;;;;;;5.32;4.80;;;;;;;33.28;24.85;98946.78;5038624;28;20217;-85
2021/07/04 11:26:05;;;;;;;5.05;4.65;;;;;;;33.68;24.96;98945.88;5056243;28;20226;-87
2021/07/04 11:28:34;;;;;;;4.95;4.55;;;;;;;33.52;25.53;98942.56;5055923;28;20230;-84
2021/07/04 11:31:05;;;;;;;5.18;4.78;;;;;;;33.98;24.43;98946.38;5023489;28;20571;-89
2021/07/04 11:33:42;;;;;;;4.93;4.35;;;;;;;34.48;22.50;98944.53;5056071;28;20228;-88
2021/07/04 11:36:16;;;;;;;5.40;5.00;;;;;;;34.80;21.76;98939.03;5039940;28;20225;-86
2021/07/04 11:38:54;;;;;;;4.70;4.40;;;;;;;35.19;20.63;98936.22;5057610;28;20228;-85
2021/07/04 11:41:39;;;;;;;4.65;4.25;;;;;;;35.58;20.83;98932.56;5015810;28;20518;-88
2021/07/04 11:44:09;;;;;;;4.50;4.10;;;;;;;35.63;20.21;98910.66;5019293;28;20233;-88
2021/07/04 11:46:39;;;;;;;4.60;4.20;;;;;;;36.23;18.68;98931.09;5035723;28;20622;-87